sensor_id;sensor_type;location;lat;lon;timestamp;temperature;humidity
19279;DHT22;9773;47.062;15.446;2023-01-20T00:01:13;1.40;99.90
19279;DHT22;9773;47.062;15.446;2023-01-20T00:03:40;1.40;99.90
19279;DHT22;9773;47.062;15.446;2023-01-20T00:06:07;1.40;99.90
19279;DHT22;9773;47.062;15.446;2023-01-20T00:08:33;1.40;99.90
19279;DHT22;9773;47.062;15.446;2023-01-20T00:11:04;1.40;99.90
19279;DHT22;9773;47.062;15.446;2023-01-20T00:13:30;1.50;99.90
19279;DHT22;9773;47.062;15.446;2023-01-20T00:15:56;1.40;99.90
19279;DHT22;9773;47.062;15.446;2023-01-20T00:18:22;1.40;99.90
19279;DHT22;9773;47.062;15.446;2023-01-20T00:20:48;1.30;99.90
19279;DHT22;9773;47.062;15.446;2023-01-20T00:23:13;1.20;99.90
19279;DHT22;9773;47.062;15.446;2023-01-20T00:25:39;1.20;99.90
19279;DHT22;9773;47.062;15.446;2023-01-20T00:28:05;1.10;99.90
19279;DHT22;9773;47.062;15.446;2023-01-20T00:30:31;1.20;99.90
19279;DHT22;9773;47.062;15.446;2023-01-20T00:32:57;1.20;99.90
19279;DHT22;9773;47.062;15.446;2023-01-20T00:35:23;1.20;99.90
19279;DHT22;9773;47.062;15.446;2023-01-20T00:37:49;1.20;99.90
19279;DHT22;9773;47.062;15.446;2023-01-20T00:40:15;1.30;99.90
19279;DHT22;9773;47.062;15.446;2023-01-20T00:42:40;1.30;99.90
19279;DHT22;9773;47.062;15.446;2023-01-20T00:45:07;1.40;99.90
19279;DHT22;9773;47.062;15.446;2023-01-20T00:47:32;1.40;99.90
19279;DHT22;9773;47.062;15.446;2023-01-20T00:49:58;1.40;99.90
19279;DHT22;9773;47.062;15.446;2023-01-20T00:52:24;1.30;99.90
19279;DHT22;9773;47.062;15.446;2023-01-20T00:54:50;1.40;99.90
19279;DHT22;9773;47.062;15.446;2023-01-20T00:57:16;1.40;99.90
19279;DHT22;9773;47.062;15.446;2023-01-20T00:59:42;1.30;99.90
19279;DHT22;9773;47.062;15.446;2023-01-20T01:02:07;1.30;99.90
19279;DHT22;9773;47.062;15.446;2023-01-20T01:04:33;1.20;99.90
19279;DHT22;9773;47.062;15.446;2023-01-20T01:06:59;1.20;99.90
19279;DHT22;9773;47.062;15.446;2023-01-20T01:09:25;1.10;99.90
19279;DHT22;9773;47.062;15.446;2023-01-20T01:11:50;1.10;99.90
19279;DHT22;9773;47.062;15.446;2023-01-20T01:14:17;1.10;99.90
19279;DHT22;9773;47.062;15.446;2023-01-20T01:16:43;1.10;99.90
19279;DHT22;9773;47.062;15.446;2023-01-20T01:19:09;1.00;99.90
19279;DHT22;9773;47.062;15.446;2023-01-20T01:21:35;1.10;99.90
19279;DHT22;9773;47.062;15.446;2023-01-20T01:24:01;1.00;99.90
19279;DHT22;9773;47.062;15.446;2023-01-20T01:26:26;0.90;99.90
19279;DHT22;9773;47.062;15.446;2023-01-20T01:28:52;0.90;99.90
19279;DHT22;9773;47.062;15.446;2023-01-20T01:31:18;0.80;99.90
19279;DHT22;9773;47.062;15.446;2023-01-20T01:33:47;0.80;99.90
19279;DHT22;9773;47.062;15.446;2023-01-20T01:36:14;0.80;99.90
19279;DHT22;9773;47.062;15.446;2023-01-20T01:38:41;0.80;99.90
19279;DHT22;9773;47.062;15.446;2023-01-20T01:41:12;0.70;99.90
19279;DHT22;9773;47.062;15.446;2023-01-20T01:43:39;0.80;99.90
19279;DHT22;9773;47.062;15.446;2023-01-20T01:46:05;0.80;99.90
19279;DHT22;9773;47.062;15.446;2023-01-20T01:48:42;0.80;99.90
19279;DHT22;9773;47.062;15.446;2023-01-20T01:51:13;0.80;99.90
19279;DHT22;9773;47.062;15.446;2023-01-20T01:54:04;0.90;99.90
19279;DHT22;9773;47.062;15.446;2023-01-20T01:56:29;0.90;99.90
19279;DHT22;9773;47.062;15.446;2023-01-20T01:58:59;1.00;99.90
19279;DHT22;9773;47.062;15.446;2023-01-20T02:01:26;1.00;99.90
19279;DHT22;9773;47.062;15.446;2023-01-20T02:04:02;1.00;99.90
19279;DHT22;9773;47.062;15.446;2023-01-20T02:06:31;0.90;99.90
19279;DHT22;9773;47.062;15.446;2023-01-20T02:08:59;0.90;99.90
19279;DHT22;9773;47.062;15.446;2023-01-20T02:11:28;0.90;99.90
19279;DHT22;9773;47.062;15.446;2023-01-20T02:13:54;1.00;99.90
19279;DHT22;9773;47.062;15.446;2023-01-20T02:30:11;1.10;99.90
19279;DHT22;9773;47.062;15.446;2023-01-20T02:32:57;1.10;99.90
19279;DHT22;9773;47.062;15.446;2023-01-20T02:38:28;1.00;99.90
19279;DHT22;9773;47.062;15.446;2023-01-20T02:43:59;0.90;99.90
19279;DHT22;9773;47.062;15.446;2023-01-20T02:49:25;0.90;99.90
19279;DHT22;9773;47.062;15.446;2023-01-20T02:52:02;0.90;99.90
19279;DHT22;9773;47.062;15.446;2023-01-20T02:54:31;0.90;99.90
19279;DHT22;9773;47.062;15.446;2023-01-20T02:56:59;0.90;99.90
19279;DHT22;9773;47.062;15.446;2023-01-20T02:59:35;1.00;99.90
19279;DHT22;9773;47.062;15.446;2023-01-20T03:02:05;1.00;99.90
19279;DHT22;9773;47.062;15.446;2023-01-20T03:04:56;1.10;99.90
19279;DHT22;9773;47.062;15.446;2023-01-20T03:07:25;1.10;99.90
19279;DHT22;9773;47.062;15.446;2023-01-20T03:09:55;1.00;99.90
19279;DHT22;9773;47.062;15.446;2023-01-20T03:14:49;1.00;99.90
19279;DHT22;9773;47.062;15.446;2023-01-20T03:17:17;1.00;99.90
19279;DHT22;9773;47.062;15.446;2023-01-20T03:19:43;1.00;99.90
19279;DHT22;9773;47.062;15.446;2023-01-20T03:22:09;1.00;99.90
19279;DHT22;9773;47.062;15.446;2023-01-20T03:24:37;1.00;99.90
19279;DHT22;9773;47.062;15.446;2023-01-20T03:27:04;1.00;99.90
19279;DHT22;9773;47.062;15.446;2023-01-20T03:29:30;0.90;99.90
19279;DHT22;9773;47.062;15.446;2023-01-20T03:31:58;0.80;99.90
19279;DHT22;9773;47.062;15.446;2023-01-20T03:34:26;0.80;99.90
19279;DHT22;9773;47.062;15.446;2023-01-20T03:36:54;0.80;99.90
19279;DHT22;9773;47.062;15.446;2023-01-20T03:39:21;0.80;99.90
19279;DHT22;9773;47.062;15.446;2023-01-20T03:42:11;0.70;99.90
19279;DHT22;9773;47.062;15.446;2023-01-20T03:44:44;0.70;99.90
19279;DHT22;9773;47.062;15.446;2023-01-20T03:47:28;0.80;99.90
19279;DHT22;9773;47.062;15.446;2023-01-20T03:52:59;0.80;99.90
19279;DHT22;9773;47.062;15.446;2023-01-20T03:55:33;0.80;99.90
19279;DHT22;9773;47.062;15.446;2023-01-20T03:58:04;0.80;99.90
19279;DHT22;9773;47.062;15.446;2023-01-20T04:00:33;0.80;99.90
19279;DHT22;9773;47.062;15.446;2023-01-20T04:03:05;0.80;99.90
19279;DHT22;9773;47.062;15.446;2023-01-20T04:05:32;0.80;99.90
19279;DHT22;9773;47.062;15.446;2023-01-20T04:08:01;0.70;99.90
19279;DHT22;9773;47.062;15.446;2023-01-20T04:10:30;0.70;99.90
19279;DHT22;9773;47.062;15.446;2023-01-20T04:12:56;0.70;99.90
19279;DHT22;9773;47.062;15.446;2023-01-20T04:15:24;0.70;99.90
19279;DHT22;9773;47.062;15.446;2023-01-20T04:17:50;0.70;99.90
19279;DHT22;9773;47.062;15.446;2023-01-20T04:20:16;0.70;99.90
19279;DHT22;9773;47.062;15.446;2023-01-20T04:22:56;0.70;99.90
19279;DHT22;9773;47.062;15.446;2023-01-20T04:25:29;0.70;99.90
19279;DHT22;9773;47.062;15.446;2023-01-20T04:27:56;0.70;99.90
19279;DHT22;9773;47.062;15.446;2023-01-20T04:30:22;0.70;99.90
19279;DHT22;9773;47.062;15.446;2023-01-20T04:32:47;0.70;99.90
19279;DHT22;9773;47.062;15.446;2023-01-20T04:35:16;0.70;99.90
19279;DHT22;9773;47.062;15.446;2023-01-20T04:37:42;0.70;99.90
19279;DHT22;9773;47.062;15.446;2023-01-20T04:40:08;0.60;99.90
19279;DHT22;9773;47.062;15.446;2023-01-20T04:42:34;0.60;99.90
19279;DHT22;9773;47.062;15.446;2023-01-20T04:45:00;0.50;99.90
19279;DHT22;9773;47.062;15.446;2023-01-20T04:47:29;0.50;99.90
19279;DHT22;9773;47.062;15.446;2023-01-20T04:49:55;0.50;99.90
19279;DHT22;9773;47.062;15.446;2023-01-20T04:52:21;0.40;99.90
19279;DHT22;9773;47.062;15.446;2023-01-20T04:54:47;0.40;99.90
19279;DHT22;9773;47.062;15.446;2023-01-20T04:57:13;0.40;99.90
19279;DHT22;9773;47.062;15.446;2023-01-20T04:59:40;0.40;99.90
19279;DHT22;9773;47.062;15.446;2023-01-20T05:02:05;0.40;99.90
19279;DHT22;9773;47.062;15.446;2023-01-20T05:04:31;0.60;99.90
19279;DHT22;9773;47.062;15.446;2023-01-20T05:06:57;0.60;99.90
19279;DHT22;9773;47.062;15.446;2023-01-20T05:09:23;0.70;99.90
19279;DHT22;9773;47.062;15.446;2023-01-20T05:11:48;0.70;99.90
19279;DHT22;9773;47.062;15.446;2023-01-20T05:14:14;0.70;99.90
19279;DHT22;9773;47.062;15.446;2023-01-20T05:16:40;0.70;99.90
19279;DHT22;9773;47.062;15.446;2023-01-20T05:19:06;0.70;99.90
19279;DHT22;9773;47.062;15.446;2023-01-20T05:21:32;0.70;99.90
19279;DHT22;9773;47.062;15.446;2023-01-20T05:23:58;0.80;99.90
19279;DHT22;9773;47.062;15.446;2023-01-20T05:26:24;0.80;99.90
19279;DHT22;9773;47.062;15.446;2023-01-20T05:28:51;0.70;99.90
19279;DHT22;9773;47.062;15.446;2023-01-20T05:31:17;0.70;99.90
19279;DHT22;9773;47.062;15.446;2023-01-20T05:33:43;0.70;99.90
19279;DHT22;9773;47.062;15.446;2023-01-20T05:36:10;0.70;99.90
19279;DHT22;9773;47.062;15.446;2023-01-20T05:38:37;0.70;99.90
19279;DHT22;9773;47.062;15.446;2023-01-20T05:41:05;0.70;99.90
19279;DHT22;9773;47.062;15.446;2023-01-20T05:43:31;0.70;99.90
19279;DHT22;9773;47.062;15.446;2023-01-20T05:45:57;0.60;99.90
19279;DHT22;9773;47.062;15.446;2023-01-20T05:48:24;0.60;99.90
19279;DHT22;9773;47.062;15.446;2023-01-20T05:50:50;0.60;99.90
19279;DHT22;9773;47.062;15.446;2023-01-20T05:53:16;0.60;99.90
19279;DHT22;9773;47.062;15.446;2023-01-20T05:55:43;0.70;99.90
19279;DHT22;9773;47.062;15.446;2023-01-20T05:58:09;0.70;99.90
19279;DHT22;9773;47.062;15.446;2023-01-20T06:00:35;0.60;99.90
19279;DHT22;9773;47.062;15.446;2023-01-20T06:03:01;0.60;99.90
19279;DHT22;9773;47.062;15.446;2023-01-20T06:05:27;0.60;99.90
19279;DHT22;9773;47.062;15.446;2023-01-20T06:07:56;0.60;99.90
19279;DHT22;9773;47.062;15.446;2023-01-20T06:10:22;0.50;99.90
19279;DHT22;9773;47.062;15.446;2023-01-20T06:12:57;0.40;99.90
19279;DHT22;9773;47.062;15.446;2023-01-20T06:15:23;0.50;99.90
19279;DHT22;9773;47.062;15.446;2023-01-20T06:17:50;0.60;99.90
19279;DHT22;9773;47.062;15.446;2023-01-20T06:20:17;0.70;99.90
19279;DHT22;9773;47.062;15.446;2023-01-20T06:22:43;0.80;99.90
19279;DHT22;9773;47.062;15.446;2023-01-20T06:25:09;0.80;99.90
19279;DHT22;9773;47.062;15.446;2023-01-20T06:27:35;0.70;99.90
19279;DHT22;9773;47.062;15.446;2023-01-20T06:30:05;0.70;99.90
19279;DHT22;9773;47.062;15.446;2023-01-20T06:32:31;0.80;99.90
19279;DHT22;9773;47.062;15.446;2023-01-20T06:34:57;0.80;99.90
19279;DHT22;9773;47.062;15.446;2023-01-20T06:37:22;0.80;99.90
19279;DHT22;9773;47.062;15.446;2023-01-20T06:39:48;0.80;99.90
19279;DHT22;9773;47.062;15.446;2023-01-20T06:42:14;0.80;99.90
19279;DHT22;9773;47.062;15.446;2023-01-20T06:44:40;0.80;99.90
19279;DHT22;9773;47.062;15.446;2023-01-20T06:47:05;0.70;99.90
19279;DHT22;9773;47.062;15.446;2023-01-20T06:49:31;0.80;99.90
19279;DHT22;9773;47.062;15.446;2023-01-20T06:51:58;0.80;99.90
19279;DHT22;9773;47.062;15.446;2023-01-20T06:54:24;0.80;99.90
19279;DHT22;9773;47.062;15.446;2023-01-20T06:56:51;0.80;99.90
19279;DHT22;9773;47.062;15.446;2023-01-20T06:59:17;0.90;99.90
19279;DHT22;9773;47.062;15.446;2023-01-20T07:01:43;1.00;99.90
19279;DHT22;9773;47.062;15.446;2023-01-20T07:04:12;1.10;99.90
19279;DHT22;9773;47.062;15.446;2023-01-20T07:06:39;1.20;99.90
19279;DHT22;9773;47.062;15.446;2023-01-20T07:09:07;1.20;99.90
19279;DHT22;9773;47.062;15.446;2023-01-20T07:11:33;1.20;99.90
19279;DHT22;9773;47.062;15.446;2023-01-20T07:14:02;1.20;99.90
19279;DHT22;9773;47.062;15.446;2023-01-20T07:16:29;1.10;99.90
19279;DHT22;9773;47.062;15.446;2023-01-20T07:18:55;1.10;99.90
19279;DHT22;9773;47.062;15.446;2023-01-20T07:21:21;1.20;99.90
19279;DHT22;9773;47.062;15.446;2023-01-20T07:23:48;1.30;99.90
19279;DHT22;9773;47.062;15.446;2023-01-20T07:26:16;1.30;99.90
19279;DHT22;9773;47.062;15.446;2023-01-20T07:28:43;1.40;99.90
19279;DHT22;9773;47.062;15.446;2023-01-20T07:31:20;1.50;99.90
19279;DHT22;9773;47.062;15.446;2023-01-20T07:33:46;1.50;99.90
19279;DHT22;9773;47.062;15.446;2023-01-20T07:36:13;1.60;99.90
19279;DHT22;9773;47.062;15.446;2023-01-20T07:38:40;1.50;99.90
19279;DHT22;9773;47.062;15.446;2023-01-20T07:41:08;1.50;99.90
19279;DHT22;9773;47.062;15.446;2023-01-20T07:43:43;1.40;99.90
19279;DHT22;9773;47.062;15.446;2023-01-20T07:46:09;1.40;99.90
19279;DHT22;9773;47.062;15.446;2023-01-20T07:48:36;1.50;99.90
19279;DHT22;9773;47.062;15.446;2023-01-20T07:51:03;1.50;99.90
19279;DHT22;9773;47.062;15.446;2023-01-20T07:53:31;1.60;99.90
19279;DHT22;9773;47.062;15.446;2023-01-20T07:56:21;1.60;99.90
19279;DHT22;9773;47.062;15.446;2023-01-20T07:58:47;1.60;99.90
19279;DHT22;9773;47.062;15.446;2023-01-20T08:03:48;1.60;99.90
19279;DHT22;9773;47.062;15.446;2023-01-20T08:06:16;1.60;99.90
19279;DHT22;9773;47.062;15.446;2023-01-20T08:08:43;1.60;99.90
19279;DHT22;9773;47.062;15.446;2023-01-20T08:11:12;1.70;99.90
19279;DHT22;9773;47.062;15.446;2023-01-20T08:13:38;1.60;99.90
19279;DHT22;9773;47.062;15.446;2023-01-20T08:16:07;1.70;99.90
19279;DHT22;9773;47.062;15.446;2023-01-20T08:18:34;1.70;99.90
19279;DHT22;9773;47.062;15.446;2023-01-20T08:21:04;1.70;99.90
19279;DHT22;9773;47.062;15.446;2023-01-20T08:23:32;1.80;99.90
19279;DHT22;9773;47.062;15.446;2023-01-20T08:26:03;1.90;99.90
19279;DHT22;9773;47.062;15.446;2023-01-20T08:28:30;2.00;99.90
19279;DHT22;9773;47.062;15.446;2023-01-20T08:31:14;1.80;99.90
19279;DHT22;9773;47.062;15.446;2023-01-20T08:33:41;1.90;99.90
19279;DHT22;9773;47.062;15.446;2023-01-20T08:38:39;2.00;99.90
19279;DHT22;9773;47.062;15.446;2023-01-20T08:41:10;2.10;99.30
19279;DHT22;9773;47.062;15.446;2023-01-20T08:43:37;2.00;98.50
19279;DHT22;9773;47.062;15.446;2023-01-20T08:46:05;2.00;98.90
19279;DHT22;9773;47.062;15.446;2023-01-20T08:48:32;2.00;98.30
19279;DHT22;9773;47.062;15.446;2023-01-20T08:50:58;2.00;97.80
19279;DHT22;9773;47.062;15.446;2023-01-20T08:53:27;2.10;97.50
19279;DHT22;9773;47.062;15.446;2023-01-20T08:55:55;2.00;97.40
19279;DHT22;9773;47.062;15.446;2023-01-20T08:58:21;2.00;97.50
19279;DHT22;9773;47.062;15.446;2023-01-20T09:00:47;2.10;97.60
19279;DHT22;9773;47.062;15.446;2023-01-20T09:03:13;2.20;97.50
19279;DHT22;9773;47.062;15.446;2023-01-20T09:05:39;2.20;96.70
19279;DHT22;9773;47.062;15.446;2023-01-20T09:08:04;2.20;97.00
19279;DHT22;9773;47.062;15.446;2023-01-20T09:10:34;2.30;97.10
19279;DHT22;9773;47.062;15.446;2023-01-20T09:13:00;2.30;96.40
19279;DHT22;9773;47.062;15.446;2023-01-20T09:15:26;2.30;96.20
19279;DHT22;9773;47.062;15.446;2023-01-20T09:17:52;2.30;96.40
19279;DHT22;9773;47.062;15.446;2023-01-20T09:20:18;2.20;96.30
19279;DHT22;9773;47.062;15.446;2023-01-20T09:22:44;2.30;96.40
19279;DHT22;9773;47.062;15.446;2023-01-20T09:25:10;2.30;96.60
19279;DHT22;9773;47.062;15.446;2023-01-20T09:27:36;2.40;96.60
19279;DHT22;9773;47.062;15.446;2023-01-20T09:30:02;2.40;96.20
19279;DHT22;9773;47.062;15.446;2023-01-20T09:32:28;2.50;96.10
19279;DHT22;9773;47.062;15.446;2023-01-20T09:34:54;2.50;96.00
19279;DHT22;9773;47.062;15.446;2023-01-20T09:37:21;2.40;96.10
19279;DHT22;9773;47.062;15.446;2023-01-20T09:40:12;2.50;96.10
19279;DHT22;9773;47.062;15.446;2023-01-20T09:46:17;2.50;95.90
19279;DHT22;9773;47.062;15.446;2023-01-20T09:51:55;2.40;95.80
19279;DHT22;9773;47.062;15.446;2023-01-20T09:54:46;2.50;96.10
19279;DHT22;9773;47.062;15.446;2023-01-20T09:57:13;2.40;95.50
19279;DHT22;9773;47.062;15.446;2023-01-20T09:59:53;2.40;95.60
19279;DHT22;9773;47.062;15.446;2023-01-20T10:02:24;2.40;95.60
19279;DHT22;9773;47.062;15.446;2023-01-20T10:04:55;2.30;95.40
19279;DHT22;9773;47.062;15.446;2023-01-20T10:07:34;2.40;96.00
19279;DHT22;9773;47.062;15.446;2023-01-20T10:12:51;2.40;95.40
19279;DHT22;9773;47.062;15.446;2023-01-20T10:15:27;2.30;95.50
19279;DHT22;9773;47.062;15.446;2023-01-20T10:21:10;2.30;95.60
19279;DHT22;9773;47.062;15.446;2023-01-20T10:24:38;2.30;95.60
19279;DHT22;9773;47.062;15.446;2023-01-20T10:26:59;2.30;95.40
19279;DHT22;9773;47.062;15.446;2023-01-20T10:29:35;2.30;95.50
19279;DHT22;9773;47.062;15.446;2023-01-20T10:32:25;2.30;95.30
19279;DHT22;9773;47.062;15.446;2023-01-20T10:34:52;2.30;95.40
19279;DHT22;9773;47.062;15.446;2023-01-20T10:37:20;2.30;95.10
19279;DHT22;9773;47.062;15.446;2023-01-20T10:39:48;2.30;95.10
19279;DHT22;9773;47.062;15.446;2023-01-20T10:42:18;2.30;95.20
19279;DHT22;9773;47.062;15.446;2023-01-20T10:44:46;2.40;95.10
19279;DHT22;9773;47.062;15.446;2023-01-20T10:47:22;2.30;94.90
19279;DHT22;9773;47.062;15.446;2023-01-20T10:56:01;2.50;95.10
19279;DHT22;9773;47.062;15.446;2023-01-20T10:58:33;2.50;94.90
19279;DHT22;9773;47.062;15.446;2023-01-20T11:01:03;2.50;94.90
19279;DHT22;9773;47.062;15.446;2023-01-20T11:03:38;2.50;94.80
19279;DHT22;9773;47.062;15.446;2023-01-20T11:06:05;2.50;94.90
19279;DHT22;9773;47.062;15.446;2023-01-20T11:08:31;2.40;94.90
19279;DHT22;9773;47.062;15.446;2023-01-20T11:11:15;2.40;94.90
19279;DHT22;9773;47.062;15.446;2023-01-20T11:13:42;2.40;94.90
19279;DHT22;9773;47.062;15.446;2023-01-20T11:16:28;2.50;94.60
19279;DHT22;9773;47.062;15.446;2023-01-20T11:19:00;2.50;94.50
19279;DHT22;9773;47.062;15.446;2023-01-20T11:21:31;2.50;94.70
19279;DHT22;9773;47.062;15.446;2023-01-20T11:23:58;2.60;94.50
19279;DHT22;9773;47.062;15.446;2023-01-20T11:26:32;2.60;94.60
19279;DHT22;9773;47.062;15.446;2023-01-20T11:31:40;2.70;94.40
19279;DHT22;9773;47.062;15.446;2023-01-20T11:34:26;2.80;94.70
19279;DHT22;9773;47.062;15.446;2023-01-20T11:39:32;2.90;94.50
19279;DHT22;9773;47.062;15.446;2023-01-20T11:44:46;3.00;94.40
19279;DHT22;9773;47.062;15.446;2023-01-20T11:47:23;3.10;94.30
19279;DHT22;9773;47.062;15.446;2023-01-20T11:52:38;3.00;94.20
19279;DHT22;9773;47.062;15.446;2023-01-20T11:55:11;3.00;94.20
19279;DHT22;9773;47.062;15.446;2023-01-20T11:57:41;3.00;94.30
19279;DHT22;9773;47.062;15.446;2023-01-20T12:00:30;3.00;94.20
19279;DHT22;9773;47.062;15.446;2023-01-20T12:08:20;3.20;94.20
19279;DHT22;9773;47.062;15.446;2023-01-20T12:10:48;3.20;94.10
19279;DHT22;9773;47.062;15.446;2023-01-20T12:13:19;3.20;93.90
19279;DHT22;9773;47.062;15.446;2023-01-20T12:15:49;3.20;94.30
19279;DHT22;9773;47.062;15.446;2023-01-20T12:18:36;3.20;94.20
19279;DHT22;9773;47.062;15.446;2023-01-20T12:21:10;3.30;94.10
19279;DHT22;9773;47.062;15.446;2023-01-20T12:26:18;3.20;94.00
19279;DHT22;9773;47.062;15.446;2023-01-20T12:31:20;3.30;94.20
19279;DHT22;9773;47.062;15.446;2023-01-20T12:33:50;3.30;94.00
19279;DHT22;9773;47.062;15.446;2023-01-20T12:36:39;3.30;94.20
19279;DHT22;9773;47.062;15.446;2023-01-20T12:42:14;3.50;94.80
19279;DHT22;9773;47.062;15.446;2023-01-20T12:44:46;3.60;94.50
19279;DHT22;9773;47.062;15.446;2023-01-20T12:50:25;3.50;94.30
19279;DHT22;9773;47.062;15.446;2023-01-20T13:01:10;3.30;94.50
19279;DHT22;9773;47.062;15.446;2023-01-20T13:20:42;3.30;95.10
19279;DHT22;9773;47.062;15.446;2023-01-20T13:23:15;3.40;94.80
19279;DHT22;9773;47.062;15.446;2023-01-20T13:25:44;3.30;95.00
19279;DHT22;9773;47.062;15.446;2023-01-20T13:28:18;3.30;95.10
19279;DHT22;9773;47.062;15.446;2023-01-20T13:30:45;3.20;95.00
19279;DHT22;9773;47.062;15.446;2023-01-20T13:33:32;3.30;95.40
19279;DHT22;9773;47.062;15.446;2023-01-20T13:36:00;3.40;96.00
19279;DHT22;9773;47.062;15.446;2023-01-20T13:38:37;3.30;94.70
19279;DHT22;9773;47.062;15.446;2023-01-20T13:41:04;3.30;95.30
19279;DHT22;9773;47.062;15.446;2023-01-20T13:48:35;3.30;94.80
19279;DHT22;9773;47.062;15.446;2023-01-20T13:56:50;3.30;94.90
19279;DHT22;9773;47.062;15.446;2023-01-20T13:59:16;3.20;94.80
19279;DHT22;9773;47.062;15.446;2023-01-20T14:01:42;3.10;94.90
19279;DHT22;9773;47.062;15.446;2023-01-20T14:04:16;3.10;94.80
19279;DHT22;9773;47.062;15.446;2023-01-20T14:06:48;3.20;94.90
19279;DHT22;9773;47.062;15.446;2023-01-20T14:09:24;3.20;94.50
19279;DHT22;9773;47.062;15.446;2023-01-20T14:11:55;3.20;94.60
19279;DHT22;9773;47.062;15.446;2023-01-20T14:14:23;3.20;94.30
19279;DHT22;9773;47.062;15.446;2023-01-20T14:16:50;3.20;94.40
19279;DHT22;9773;47.062;15.446;2023-01-20T14:21:57;3.20;94.30
19279;DHT22;9773;47.062;15.446;2023-01-20T14:24:53;3.10;94.00
19279;DHT22;9773;47.062;15.446;2023-01-20T14:29:54;3.30;94.40
19279;DHT22;9773;47.062;15.446;2023-01-20T14:32:31;3.30;94.40
19279;DHT22;9773;47.062;15.446;2023-01-20T14:34:59;3.20;94.20
19279;DHT22;9773;47.062;15.446;2023-01-20T14:37:36;3.20;94.40
19279;DHT22;9773;47.062;15.446;2023-01-20T14:42:57;3.30;94.40
19279;DHT22;9773;47.062;15.446;2023-01-20T14:45:25;3.40;94.00
19279;DHT22;9773;47.062;15.446;2023-01-20T14:47:52;3.30;93.90
19279;DHT22;9773;47.062;15.446;2023-01-20T14:50:19;3.30;93.90
19279;DHT22;9773;47.062;15.446;2023-01-20T14:52:45;3.30;94.10
19279;DHT22;9773;47.062;15.446;2023-01-20T14:55:30;3.30;93.90
19279;DHT22;9773;47.062;15.446;2023-01-20T14:57:56;3.30;93.80
19279;DHT22;9773;47.062;15.446;2023-01-20T15:00:30;3.30;93.10
19279;DHT22;9773;47.062;15.446;2023-01-20T15:05:41;3.30;93.20
19279;DHT22;9773;47.062;15.446;2023-01-20T15:16:45;3.30;93.60
19279;DHT22;9773;47.062;15.446;2023-01-20T15:21:41;3.30;93.50
19279;DHT22;9773;47.062;15.446;2023-01-20T15:24:20;3.20;93.70
19279;DHT22;9773;47.062;15.446;2023-01-20T15:26:49;3.20;93.50
19279;DHT22;9773;47.062;15.446;2023-01-20T15:29:34;3.20;93.50
19279;DHT22;9773;47.062;15.446;2023-01-20T15:32:08;3.30;93.30
19279;DHT22;9773;47.062;15.446;2023-01-20T15:34:35;3.10;93.50
19279;DHT22;9773;47.062;15.446;2023-01-20T15:37:01;3.10;93.80
19279;DHT22;9773;47.062;15.446;2023-01-20T15:39:27;3.00;93.60
19279;DHT22;9773;47.062;15.446;2023-01-20T15:41:55;3.10;93.20
19279;DHT22;9773;47.062;15.446;2023-01-20T15:44:22;3.10;93.60
19279;DHT22;9773;47.062;15.446;2023-01-20T15:46:49;3.10;93.60
19279;DHT22;9773;47.062;15.446;2023-01-20T15:49:15;3.10;93.50
19279;DHT22;9773;47.062;15.446;2023-01-20T15:51:43;3.20;93.50
19279;DHT22;9773;47.062;15.446;2023-01-20T15:54:09;3.10;93.60
19279;DHT22;9773;47.062;15.446;2023-01-20T15:56:38;3.00;93.50
19279;DHT22;9773;47.062;15.446;2023-01-20T15:59:15;3.10;93.70
19279;DHT22;9773;47.062;15.446;2023-01-20T16:01:42;3.10;93.60
19279;DHT22;9773;47.062;15.446;2023-01-20T16:04:11;3.10;93.90
19279;DHT22;9773;47.062;15.446;2023-01-20T16:06:37;3.10;93.60
19279;DHT22;9773;47.062;15.446;2023-01-20T16:09:25;3.10;93.30
19279;DHT22;9773;47.062;15.446;2023-01-20T16:11:51;3.10;93.90
19279;DHT22;9773;47.062;15.446;2023-01-20T16:14:17;3.10;93.50
19279;DHT22;9773;47.062;15.446;2023-01-20T16:16:43;3.00;93.40
19279;DHT22;9773;47.062;15.446;2023-01-20T16:19:12;3.00;93.60
19279;DHT22;9773;47.062;15.446;2023-01-20T16:21:37;3.00;93.50
19279;DHT22;9773;47.062;15.446;2023-01-20T16:24:03;3.00;93.70
19279;DHT22;9773;47.062;15.446;2023-01-20T16:26:32;3.00;93.40
19279;DHT22;9773;47.062;15.446;2023-01-20T16:28:58;3.10;93.60
19279;DHT22;9773;47.062;15.446;2023-01-20T16:31:25;3.10;93.50
19279;DHT22;9773;47.062;15.446;2023-01-20T16:33:52;3.10;93.70
19279;DHT22;9773;47.062;15.446;2023-01-20T16:36:20;3.00;93.50
19279;DHT22;9773;47.062;15.446;2023-01-20T16:38:46;3.10;93.60
19279;DHT22;9773;47.062;15.446;2023-01-20T16:41:32;3.10;93.60
19279;DHT22;9773;47.062;15.446;2023-01-20T16:44:00;3.00;93.50
19279;DHT22;9773;47.062;15.446;2023-01-20T16:46:28;2.90;93.70
19279;DHT22;9773;47.062;15.446;2023-01-20T16:48:54;3.00;93.50
19279;DHT22;9773;47.062;15.446;2023-01-20T16:51:26;3.00;93.30
19279;DHT22;9773;47.062;15.446;2023-01-20T16:53:53;3.00;93.90
19279;DHT22;9773;47.062;15.446;2023-01-20T16:56:24;3.10;93.70
19279;DHT22;9773;47.062;15.446;2023-01-20T16:58:52;3.10;93.20
19279;DHT22;9773;47.062;15.446;2023-01-20T17:01:20;3.00;93.00
19279;DHT22;9773;47.062;15.446;2023-01-20T17:03:50;3.00;94.40
19279;DHT22;9773;47.062;15.446;2023-01-20T17:06:19;3.00;93.40
19279;DHT22;9773;47.062;15.446;2023-01-20T17:08:48;3.00;94.10
19279;DHT22;9773;47.062;15.446;2023-01-20T17:11:18;3.00;93.90
19279;DHT22;9773;47.062;15.446;2023-01-20T17:13:44;3.10;94.00
19279;DHT22;9773;47.062;15.446;2023-01-20T17:16:11;3.10;93.50
19279;DHT22;9773;47.062;15.446;2023-01-20T17:18:37;3.10;94.00
19279;DHT22;9773;47.062;15.446;2023-01-20T17:21:09;3.00;93.50
19279;DHT22;9773;47.062;15.446;2023-01-20T17:23:35;3.10;93.10
19279;DHT22;9773;47.062;15.446;2023-01-20T17:26:03;3.00;94.10
19279;DHT22;9773;47.062;15.446;2023-01-20T17:28:29;3.00;93.40
19279;DHT22;9773;47.062;15.446;2023-01-20T17:30:58;3.00;93.40
19279;DHT22;9773;47.062;15.446;2023-01-20T17:33:24;3.00;93.20
19279;DHT22;9773;47.062;15.446;2023-01-20T17:36:01;2.90;93.00
19279;DHT22;9773;47.062;15.446;2023-01-20T17:38:28;2.90;93.50
19279;DHT22;9773;47.062;15.446;2023-01-20T17:41:02;2.90;93.30
19279;DHT22;9773;47.062;15.446;2023-01-20T17:43:38;2.90;94.00
19279;DHT22;9773;47.062;15.446;2023-01-20T17:46:18;2.90;93.50
19279;DHT22;9773;47.062;15.446;2023-01-20T17:48:44;3.00;93.50
19279;DHT22;9773;47.062;15.446;2023-01-20T17:51:16;3.00;93.80
19279;DHT22;9773;47.062;15.446;2023-01-20T17:53:43;2.90;94.00
19279;DHT22;9773;47.062;15.446;2023-01-20T17:56:09;2.90;93.30
19279;DHT22;9773;47.062;15.446;2023-01-20T17:58:36;3.00;94.00
19279;DHT22;9773;47.062;15.446;2023-01-20T18:01:26;3.00;93.90
19279;DHT22;9773;47.062;15.446;2023-01-20T18:03:53;3.00;93.40
19279;DHT22;9773;47.062;15.446;2023-01-20T18:06:21;3.00;93.50
19279;DHT22;9773;47.062;15.446;2023-01-20T18:08:55;2.90;93.50
19279;DHT22;9773;47.062;15.446;2023-01-20T18:11:23;2.80;93.60
19279;DHT22;9773;47.062;15.446;2023-01-20T18:13:50;2.80;93.30
19279;DHT22;9773;47.062;15.446;2023-01-20T18:16:18;2.80;93.10